sensor_id;sensor_type;location;lat;lon;timestamp;pressure;altitude;pressure_sealevel;temperature;humidity
61488;BME280;47351;53.326;-6.298;2023-09-30T00:01:44;101992.01;;;12.36;80.01
61488;BME280;47351;53.326;-6.298;2023-09-30T00:04:35;101996.06;;;12.31;80.10
61488;BME280;47351;53.326;-6.298;2023-09-30T00:07:25;101993.42;;;12.26;80.21
61488;BME280;47351;53.326;-6.298;2023-09-30T00:10:16;101992.11;;;12.23;80.45
61488;BME280;47351;53.326;-6.298;2023-09-30T00:13:07;101996.85;;;12.18;80.46
61488;BME280;47351;53.326;-6.298;2023-09-30T00:15:58;101996.52;;;12.14;80.58
61488;BME280;47351;53.326;-6.298;2023-09-30T00:18:48;101994.93;;;12.09;80.78
61488;BME280;47351;53.326;-6.298;2023-09-30T00:21:43;101990.45;;;12.03;80.81
61488;BME280;47351;53.326;-6.298;2023-09-30T00:24:33;101999.52;;;12.00;80.96
61488;BME280;47351;53.326;-6.298;2023-09-30T00:27:24;102011.02;;;11.95;80.95
61488;BME280;47351;53.326;-6.298;2023-09-30T00:30:16;102013.93;;;11.91;81.08
61488;BME280;47351;53.326;-6.298;2023-09-30T00:33:06;102009.23;;;11.85;81.20
61488;BME280;47351;53.326;-6.298;2023-09-30T00:35:57;102013.80;;;11.79;81.50
61488;BME280;47351;53.326;-6.298;2023-09-30T00:38:48;102016.98;;;11.74;81.59
61488;BME280;47351;53.326;-6.298;2023-09-30T00:41:39;102016.26;;;11.70;81.96
61488;BME280;47351;53.326;-6.298;2023-09-30T00:44:30;102018.91;;;11.68;82.10
61488;BME280;47351;53.326;-6.298;2023-09-30T00:47:20;102019.52;;;11.67;82.22
61488;BME280;47351;53.326;-6.298;2023-09-30T00:50:11;102018.92;;;11.66;82.32
61488;BME280;47351;53.326;-6.298;2023-09-30T00:53:02;102021.60;;;11.64;82.41
61488;BME280;47351;53.326;-6.298;2023-09-30T00:55:54;102016.95;;;11.62;82.62
61488;BME280;47351;53.326;-6.298;2023-09-30T00:58:45;102010.14;;;11.60;82.63
61488;BME280;47351;53.326;-6.298;2023-09-30T01:01:40;101996.49;;;11.58;82.94
61488;BME280;47351;53.326;-6.298;2023-09-30T01:04:31;101991.16;;;11.58;82.92
61488;BME280;47351;53.326;-6.298;2023-09-30T01:07:22;101987.67;;;11.57;83.10
61488;BME280;47351;53.326;-6.298;2023-09-30T01:10:15;101985.98;;;11.56;82.94
61488;BME280;47351;53.326;-6.298;2023-09-30T01:13:05;101990.33;;;11.55;83.04
61488;BME280;47351;53.326;-6.298;2023-09-30T01:15:56;101993.14;;;11.56;83.25
61488;BME280;47351;53.326;-6.298;2023-09-30T01:18:47;101990.34;;;11.57;83.25
61488;BME280;47351;53.326;-6.298;2023-09-30T01:21:37;101997.14;;;11.57;83.28
61488;BME280;47351;53.326;-6.298;2023-09-30T01:24:29;102004.36;;;11.56;83.28
61488;BME280;47351;53.326;-6.298;2023-09-30T01:27:19;102009.27;;;11.54;83.30
61488;BME280;47351;53.326;-6.298;2023-09-30T01:30:10;102018.64;;;11.51;83.29
61488;BME280;47351;53.326;-6.298;2023-09-30T01:33:03;102020.89;;;11.45;82.97
61488;BME280;47351;53.326;-6.298;2023-09-30T01:35:53;102023.56;;;11.39;83.06
61488;BME280;47351;53.326;-6.298;2023-09-30T01:38:44;102020.81;;;11.31;83.07
61488;BME280;47351;53.326;-6.298;2023-09-30T01:41:35;102022.52;;;11.26;83.45
61488;BME280;47351;53.326;-6.298;2023-09-30T01:44:28;102026.59;;;11.23;83.75
61488;BME280;47351;53.326;-6.298;2023-09-30T01:47:18;102024.08;;;11.19;83.84
61488;BME280;47351;53.326;-6.298;2023-09-30T01:50:09;102021.20;;;11.14;83.88
61488;BME280;47351;53.326;-6.298;2023-09-30T01:53:00;102018.04;;;11.09;84.12
61488;BME280;47351;53.326;-6.298;2023-09-30T01:55:51;102006.63;;;11.05;84.14
61488;BME280;47351;53.326;-6.298;2023-09-30T01:58:41;102000.37;;;11.01;84.23
61488;BME280;47351;53.326;-6.298;2023-09-30T02:01:32;102007.12;;;10.97;84.09
61488;BME280;47351;53.326;-6.298;2023-09-30T02:04:23;102009.08;;;10.93;84.31
61488;BME280;47351;53.326;-6.298;2023-09-30T02:07:13;102004.06;;;10.91;84.70
61488;BME280;47351;53.326;-6.298;2023-09-30T02:10:05;102010.79;;;10.89;84.67
61488;BME280;47351;53.326;-6.298;2023-09-30T02:12:57;102018.41;;;10.86;84.59
61488;BME280;47351;53.326;-6.298;2023-09-30T02:15:48;102016.88;;;10.85;84.73
61488;BME280;47351;53.326;-6.298;2023-09-30T02:18:42;102013.61;;;10.86;85.03
61488;BME280;47351;53.326;-6.298;2023-09-30T02:21:34;102008.54;;;10.86;85.11
61488;BME280;47351;53.326;-6.298;2023-09-30T02:24:25;102000.84;;;10.87;85.03
61488;BME280;47351;53.326;-6.298;2023-09-30T02:27:19;101992.98;;;10.86;85.01
61488;BME280;47351;53.326;-6.298;2023-09-30T02:30:11;101996.27;;;10.88;85.10
61488;BME280;47351;53.326;-6.298;2023-09-30T02:33:05;102000.16;;;10.90;85.27
61488;BME280;47351;53.326;-6.298;2023-09-30T02:35:56;101994.50;;;10.94;85.29
61488;BME280;47351;53.326;-6.298;2023-09-30T02:38:48;101982.33;;;10.99;85.38
61488;BME280;47351;53.326;-6.298;2023-09-30T02:41:38;101974.14;;;11.03;85.29
61488;BME280;47351;53.326;-6.298;2023-09-30T02:44:29;101975.30;;;11.08;85.34
61488;BME280;47351;53.326;-6.298;2023-09-30T02:47:20;101974.08;;;11.14;85.28
61488;BME280;47351;53.326;-6.298;2023-09-30T02:50:11;101974.35;;;11.19;85.29
61488;BME280;47351;53.326;-6.298;2023-09-30T02:53:02;101965.47;;;11.23;85.15
61488;BME280;47351;53.326;-6.298;2023-09-30T02:55:54;101961.46;;;11.28;85.34
61488;BME280;47351;53.326;-6.298;2023-09-30T02:58:48;101970.33;;;11.33;85.43
61488;BME280;47351;53.326;-6.298;2023-09-30T03:01:40;101969.02;;;11.35;85.14
61488;BME280;47351;53.326;-6.298;2023-09-30T03:04:31;101962.13;;;11.36;85.11
61488;BME280;47351;53.326;-6.298;2023-09-30T03:07:22;101959.20;;;11.37;85.10
61488;BME280;47351;53.326;-6.298;2023-09-30T03:10:13;101953.00;;;11.36;84.95
61488;BME280;47351;53.326;-6.298;2023-09-30T03:13:09;101941.66;;;11.33;84.92
61488;BME280;47351;53.326;-6.298;2023-09-30T03:16:00;101936.63;;;11.32;85.02
61488;BME280;47351;53.326;-6.298;2023-09-30T03:18:51;101935.15;;;11.30;85.07
61488;BME280;47351;53.326;-6.298;2023-09-30T03:21:44;101937.09;;;11.28;85.24
61488;BME280;47351;53.326;-6.298;2023-09-30T03:24:35;101940.21;;;11.27;85.49
61488;BME280;47351;53.326;-6.298;2023-09-30T03:27:26;101930.58;;;11.25;85.31
61488;BME280;47351;53.326;-6.298;2023-09-30T03:30:17;101926.77;;;11.24;85.23
61488;BME280;47351;53.326;-6.298;2023-09-30T03:33:09;101916.31;;;11.23;85.18
61488;BME280;47351;53.326;-6.298;2023-09-30T03:36:01;101908.23;;;11.21;85.46
61488;BME280;47351;53.326;-6.298;2023-09-30T03:38:52;101907.89;;;11.19;85.44
61488;BME280;47351;53.326;-6.298;2023-09-30T03:41:44;101909.52;;;11.17;85.43
61488;BME280;47351;53.326;-6.298;2023-09-30T03:44:35;101911.21;;;11.16;85.37
61488;BME280;47351;53.326;-6.298;2023-09-30T03:47:26;101903.55;;;11.13;85.34
61488;BME280;47351;53.326;-6.298;2023-09-30T03:50:17;101898.38;;;11.09;85.37
61488;BME280;47351;53.326;-6.298;2023-09-30T03:53:08;101905.50;;;11.05;85.51
61488;BME280;47351;53.326;-6.298;2023-09-30T03:55:58;101911.52;;;11.01;85.47
61488;BME280;47351;53.326;-6.298;2023-09-30T03:58:49;101916.44;;;10.98;85.43
61488;BME280;47351;53.326;-6.298;2023-09-30T04:01:40;101915.71;;;10.96;85.57
61488;BME280;47351;53.326;-6.298;2023-09-30T04:04:31;101917.23;;;10.95;85.72
61488;BME280;47351;53.326;-6.298;2023-09-30T04:07:23;101917.25;;;10.95;85.96
61488;BME280;47351;53.326;-6.298;2023-09-30T04:10:16;101922.73;;;10.96;86.03
61488;BME280;47351;53.326;-6.298;2023-09-30T04:13:09;101924.17;;;10.98;86.09
61488;BME280;47351;53.326;-6.298;2023-09-30T04:16:00;101922.46;;;10.99;85.83
61488;BME280;47351;53.326;-6.298;2023-09-30T04:18:52;101921.91;;;11.01;86.11
61488;BME280;47351;53.326;-6.298;2023-09-30T04:21:43;101919.39;;;11.03;86.21
61488;BME280;47351;53.326;-6.298;2023-09-30T04:24:33;101918.41;;;11.05;86.33
61488;BME280;47351;53.326;-6.298;2023-09-30T04:27:24;101911.16;;;11.06;86.28
61488;BME280;47351;53.326;-6.298;2023-09-30T04:30:15;101908.08;;;11.06;86.26
61488;BME280;47351;53.326;-6.298;2023-09-30T04:33:06;101904.60;;;11.07;86.41
61488;BME280;47351;53.326;-6.298;2023-09-30T04:35:58;101896.27;;;11.06;86.05
61488;BME280;47351;53.326;-6.298;2023-09-30T04:38:48;101892.00;;;11.04;85.99
61488;BME280;47351;53.326;-6.298;2023-09-30T04:41:39;101892.02;;;11.02;85.84
61488;BME280;47351;53.326;-6.298;2023-09-30T04:44:30;101883.73;;;10.98;85.99
61488;BME280;47351;53.326;-6.298;2023-09-30T04:47:21;101872.55;;;10.96;86.12
61488;BME280;47351;53.326;-6.298;2023-09-30T04:50:13;101864.05;;;10.93;86.20
61488;BME280;47351;53.326;-6.298;2023-09-30T04:53:05;101857.91;;;10.89;86.26
61488;BME280;47351;53.326;-6.298;2023-09-30T04:55:57;101860.99;;;10.87;86.35
61488;BME280;47351;53.326;-6.298;2023-09-30T04:58:48;101863.05;;;10.83;86.41
61488;BME280;47351;53.326;-6.298;2023-09-30T05:01:38;101860.47;;;10.80;86.35
61488;BME280;47351;53.326;-6.298;2023-09-30T05:04:29;101861.66;;;10.77;86.35
61488;BME280;47351;53.326;-6.298;2023-09-30T05:07:20;101858.31;;;10.74;86.70
61488;BME280;47351;53.326;-6.298;2023-09-30T05:10:11;101853.24;;;10.73;86.87
61488;BME280;47351;53.326;-6.298;2023-09-30T05:13:05;101851.92;;;10.72;87.07
61488;BME280;47351;53.326;-6.298;2023-09-30T05:15:55;101853.55;;;10.72;87.35
61488;BME280;47351;53.326;-6.298;2023-09-30T05:18:46;101853.33;;;10.70;87.05
61488;BME280;47351;53.326;-6.298;2023-09-30T05:21:37;101853.96;;;10.68;87.16
61488;BME280;47351;53.326;-6.298;2023-09-30T05:24:28;101857.00;;;10.68;87.33
61488;BME280;47351;53.326;-6.298;2023-09-30T05:27:19;101855.66;;;10.70;87.48
61488;BME280;47351;53.326;-6.298;2023-09-30T05:30:10;101858.64;;;10.73;87.59
61488;BME280;47351;53.326;-6.298;2023-09-30T05:33:01;101863.77;;;10.77;87.76
61488;BME280;47351;53.326;-6.298;2023-09-30T05:35:52;101863.77;;;10.81;87.95
61488;BME280;47351;53.326;-6.298;2023-09-30T05:38:44;101859.92;;;10.89;88.25
61488;BME280;47351;53.326;-6.298;2023-09-30T05:41:35;101860.00;;;10.96;88.17
61488;BME280;47351;53.326;-6.298;2023-09-30T05:44:26;101861.58;;;11.02;88.07
61488;BME280;47351;53.326;-6.298;2023-09-30T05:47:17;101862.00;;;11.10;88.09
61488;BME280;47351;53.326;-6.298;2023-09-30T05:50:08;101864.88;;;11.16;87.95
61488;BME280;47351;53.326;-6.298;2023-09-30T05:53:00;101872.48;;;11.19;87.58
61488;BME280;47351;53.326;-6.298;2023-09-30T05:55:50;101872.54;;;11.21;87.46
61488;BME280;47351;53.326;-6.298;2023-09-30T05:58:41;101868.20;;;11.19;87.16
61488;BME280;47351;53.326;-6.298;2023-09-30T06:01:32;101874.92;;;11.18;87.29
61488;BME280;47351;53.326;-6.298;2023-09-30T06:04:23;101883.70;;;11.18;87.20
61488;BME280;47351;53.326;-6.298;2023-09-30T06:07:14;101883.98;;;11.17;87.33
61488;BME280;47351;53.326;-6.298;2023-09-30T06:10:05;101886.42;;;11.15;87.44
61488;BME280;47351;53.326;-6.298;2023-09-30T06:12:56;101883.71;;;11.13;87.34
61488;BME280;47351;53.326;-6.298;2023-09-30T06:15:48;101884.38;;;11.11;87.16
61488;BME280;47351;53.326;-6.298;2023-09-30T06:18:39;101883.02;;;11.11;87.47
61488;BME280;47351;53.326;-6.298;2023-09-30T06:21:31;101879.31;;;11.10;87.60
61488;BME280;47351;53.326;-6.298;2023-09-30T06:24:24;101871.91;;;11.09;87.66
61488;BME280;47351;53.326;-6.298;2023-09-30T06:27:14;101866.52;;;11.07;87.86
61488;BME280;47351;53.326;-6.298;2023-09-30T06:30:06;101865.40;;;11.06;87.78
61488;BME280;47351;53.326;-6.298;2023-09-30T06:32:58;101862.36;;;11.04;87.82
61488;BME280;47351;53.326;-6.298;2023-09-30T06:35:50;101865.62;;;11.03;87.99
61488;BME280;47351;53.326;-6.298;2023-09-30T06:38:44;101862.58;;;11.03;88.19
61488;BME280;47351;53.326;-6.298;2023-09-30T06:41:37;101849.08;;;11.05;88.21
61488;BME280;47351;53.326;-6.298;2023-09-30T06:44:30;101840.27;;;11.05;88.04
61488;BME280;47351;53.326;-6.298;2023-09-30T06:47:20;101835.19;;;11.06;88.09
61488;BME280;47351;53.326;-6.298;2023-09-30T06:50:11;101834.75;;;11.09;88.20
61488;BME280;47351;53.326;-6.298;2023-09-30T06:53:06;101841.38;;;11.13;88.22
61488;BME280;47351;53.326;-6.298;2023-09-30T06:55:59;101834.36;;;11.18;88.60
61488;BME280;47351;53.326;-6.298;2023-09-30T06:58:51;101831.19;;;11.25;88.48
61488;BME280;47351;53.326;-6.298;2023-09-30T07:01:41;101828.92;;;11.33;88.46
61488;BME280;47351;53.326;-6.298;2023-09-30T07:04:33;101823.16;;;11.41;88.54
61488;BME280;47351;53.326;-6.298;2023-09-30T07:07:23;101816.33;;;11.52;88.53
61488;BME280;47351;53.326;-6.298;2023-09-30T07:10:14;101815.58;;;11.62;88.50
61488;BME280;47351;53.326;-6.298;2023-09-30T07:13:05;101793.66;;;11.71;88.50
61488;BME280;47351;53.326;-6.298;2023-09-30T07:15:56;101801.59;;;11.78;88.20
61488;BME280;47351;53.326;-6.298;2023-09-30T07:18:47;101806.05;;;11.83;87.98
61488;BME280;47351;53.326;-6.298;2023-09-30T07:21:38;101798.74;;;11.87;87.55
61488;BME280;47351;53.326;-6.298;2023-09-30T07:24:28;101790.30;;;11.91;87.49
61488;BME280;47351;53.326;-6.298;2023-09-30T07:27:19;101785.22;;;11.93;87.35
61488;BME280;47351;53.326;-6.298;2023-09-30T07:30:16;101783.86;;;11.96;87.33
61488;BME280;47351;53.326;-6.298;2023-09-30T07:33:07;101789.67;;;11.99;87.46
61488;BME280;47351;53.326;-6.298;2023-09-30T07:35:58;101784.88;;;12.01;87.21
61488;BME280;47351;53.326;-6.298;2023-09-30T07:38:48;101784.88;;;12.01;87.08
61488;BME280;47351;53.326;-6.298;2023-09-30T07:41:39;101788.22;;;12.01;87.07
61488;BME280;47351;53.326;-6.298;2023-09-30T07:44:30;101787.96;;;12.02;86.98
61488;BME280;47351;53.326;-6.298;2023-09-30T07:47:21;101797.08;;;12.02;87.00
61488;BME280;47351;53.326;-6.298;2023-09-30T07:50:12;101791.44;;;12.03;87.00
61488;BME280;47351;53.326;-6.298;2023-09-30T07:53:03;101790.87;;;12.04;86.97
61488;BME280;47351;53.326;-6.298;2023-09-30T07:55:53;101792.02;;;12.05;86.83
61488;BME280;47351;53.326;-6.298;2023-09-30T07:58:44;101790.79;;;12.07;86.82
61488;BME280;47351;53.326;-6.298;2023-09-30T08:01:35;101797.08;;;12.11;86.91
61488;BME280;47351;53.326;-6.298;2023-09-30T08:04:28;101796.85;;;12.15;86.91
61488;BME280;47351;53.326;-6.298;2023-09-30T08:07:18;101795.73;;;12.21;86.96
61488;BME280;47351;53.326;-6.298;2023-09-30T08:10:09;101793.93;;;12.31;86.88
61488;BME280;47351;53.326;-6.298;2023-09-30T08:13:03;101792.98;;;12.43;86.89
61488;BME280;47351;53.326;-6.298;2023-09-30T08:15:54;101791.75;;;12.54;86.77
61488;BME280;47351;53.326;-6.298;2023-09-30T08:18:45;101789.89;;;12.64;86.53
61488;BME280;47351;53.326;-6.298;2023-09-30T08:21:36;101787.73;;;12.76;86.48
61488;BME280;47351;53.326;-6.298;2023-09-30T08:24:28;101782.41;;;12.86;86.54
61488;BME280;47351;53.326;-6.298;2023-09-30T08:27:18;101779.83;;;12.96;86.26
61488;BME280;47351;53.326;-6.298;2023-09-30T08:30:09;101774.79;;;13.06;86.40
61488;BME280;47351;53.326;-6.298;2023-09-30T08:33:00;101764.72;;;13.15;86.31
61488;BME280;47351;53.326;-6.298;2023-09-30T08:35:50;101764.07;;;13.22;86.18
61488;BME280;47351;53.326;-6.298;2023-09-30T08:38:41;101762.73;;;13.27;86.33
61488;BME280;47351;53.326;-6.298;2023-09-30T08:41:33;101761.27;;;13.29;86.10
61488;BME280;47351;53.326;-6.298;2023-09-30T08:44:24;101763.86;;;13.29;85.96
61488;BME280;47351;53.326;-6.298;2023-09-30T08:47:15;101765.17;;;13.28;86.19
61488;BME280;47351;53.326;-6.298;2023-09-30T08:50:06;101762.42;;;13.23;86.44
61488;BME280;47351;53.326;-6.298;2023-09-30T08:53:02;101757.02;;;13.17;86.68
61488;BME280;47351;53.326;-6.298;2023-09-30T08:56:21;101755.89;;;13.11;87.31
61488;BME280;47351;53.326;-6.298;2023-09-30T08:59:21;101750.73;;;13.05;87.73
61488;BME280;47351;53.326;-6.298;2023-09-30T09:02:12;101751.86;;;13.01;88.20
61488;BME280;47351;53.326;-6.298;2023-09-30T09:05:03;101752.19;;;12.97;88.68
61488;BME280;47351;53.326;-6.298;2023-09-30T09:07:53;101758.30;;;12.95;89.10
61488;BME280;47351;53.326;-6.298;2023-09-30T09:10:53;101756.14;;;12.93;89.59
61488;BME280;47351;53.326;-6.298;2023-09-30T09:13:48;101763.42;;;12.92;89.75
61488;BME280;47351;53.326;-6.298;2023-09-30T09:16:51;101761.38;;;12.91;90.03
61488;BME280;47351;53.326;-6.298;2023-09-30T09:19:42;101761.61;;;12.92;90.20
61488;BME280;47351;53.326;-6.298;2023-09-30T09:22:39;101761.48;;;12.93;90.73
61488;BME280;47351;53.326;-6.298;2023-09-30T09:25:30;101761.70;;;12.93;90.74
61488;BME280;47351;53.326;-6.298;2023-09-30T09:28:34;101756.51;;;12.91;91.14
61488;BME280;47351;53.326;-6.298;2023-09-30T09:31:26;101753.25;;;12.90;91.33
61488;BME280;47351;53.326;-6.298;2023-09-30T09:34:17;101741.41;;;12.90;91.76
61488;BME280;47351;53.326;-6.298;2023-09-30T09:37:15;101731.49;;;12.92;91.91
61488;BME280;47351;53.326;-6.298;2023-09-30T09:40:06;101725.84;;;12.97;92.25
61488;BME280;47351;53.326;-6.298;2023-09-30T09:42:57;101723.06;;;13.00;92.37
61488;BME280;47351;53.326;-6.298;2023-09-30T09:45:49;101723.23;;;13.00;92.44
61488;BME280;47351;53.326;-6.298;2023-09-30T09:48:40;101719.04;;;12.98;92.25
61488;BME280;47351;53.326;-6.298;2023-09-30T09:51:31;101713.58;;;12.97;92.39
61488;BME280;47351;53.326;-6.298;2023-09-30T09:54:21;101710.27;;;12.95;92.48
61488;BME280;47351;53.326;-6.298;2023-09-30T09:57:13;101702.52;;;12.92;92.73
61488;BME280;47351;53.326;-6.298;2023-09-30T10:00:05;101691.95;;;12.88;92.90
61488;BME280;47351;53.326;-6.298;2023-09-30T10:03:01;101692.73;;;12.86;93.27
61488;BME280;47351;53.326;-6.298;2023-09-30T10:05:52;101694.61;;;12.85;93.28
61488;BME280;47351;53.326;-6.298;2023-09-30T10:08:43;101689.23;;;12.85;93.55
61488;BME280;47351;53.326;-6.298;2023-09-30T10:11:35;101691.17;;;12.83;93.99
61488;BME280;47351;53.326;-6.298;2023-09-30T10:14:32;101686.81;;;12.84;94.49
61488;BME280;47351;53.326;-6.298;2023-09-30T10:20:28;101665.59;;;12.87;95.01
61488;BME280;47351;53.326;-6.298;2023-09-30T10:23:20;101651.08;;;12.90;95.55
61488;BME280;47351;53.326;-6.298;2023-09-30T10:26:17;101640.39;;;12.93;95.57
61488;BME280;47351;53.326;-6.298;2023-09-30T10:29:12;101622.73;;;12.94;95.59
61488;BME280;47351;53.326;-6.298;2023-09-30T10:32:02;101617.77;;;12.94;95.72
61488;BME280;47351;53.326;-6.298;2023-09-30T10:34:54;101610.61;;;12.95;95.95
61488;BME280;47351;53.326;-6.298;2023-09-30T10:37:45;101613.94;;;12.98;96.25
61488;BME280;47351;53.326;-6.298;2023-09-30T10:40:35;101620.95;;;13.00;96.46
61488;BME280;47351;53.326;-6.298;2023-09-30T10:43:35;101615.38;;;13.02;96.43
61488;BME280;47351;53.326;-6.298;2023-09-30T10:46:32;101611.14;;;13.03;96.56
61488;BME280;47351;53.326;-6.298;2023-09-30T10:49:32;101617.50;;;13.02;96.66
61488;BME280;47351;53.326;-6.298;2023-09-30T10:52:22;101620.46;;;12.99;96.84
61488;BME280;47351;53.326;-6.298;2023-09-30T10:55:17;101617.69;;;12.98;96.93
61488;BME280;47351;53.326;-6.298;2023-09-30T10:58:08;101609.84;;;12.98;97.02
61488;BME280;47351;53.326;-6.298;2023-09-30T11:00:59;101599.77;;;12.97;97.19
61488;BME280;47351;53.326;-6.298;2023-09-30T11:03:53;101601.80;;;12.97;97.38
61488;BME280;47351;53.326;-6.298;2023-09-30T11:06:48;101608.05;;;12.97;97.52
61488;BME280;47351;53.326;-6.298;2023-09-30T11:09:40;101605.46;;;12.96;97.61
61488;BME280;47351;53.326;-6.298;2023-09-30T11:12:31;101606.09;;;12.94;97.47
61488;BME280;47351;53.326;-6.298;2023-09-30T11:15:22;101598.77;;;12.92;97.54
61488;BME280;47351;53.326;-6.298;2023-09-30T11:18:16;101592.38;;;12.93;97.85
61488;BME280;47351;53.326;-6.298;2023-09-30T11:21:08;101585.89;;;12.97;98.30
61488;BME280;47351;53.326;-6.298;2023-09-30T11:23:59;101582.36;;;13.02;98.59
61488;BME280;47351;53.326;-6.298;2023-09-30T11:26:52;101576.30;;;13.09;98.59
61488;BME280;47351;53.326;-6.298;2023-09-30T11:29:49;101582.20;;;13.07;97.43
61488;BME280;47351;53.326;-6.298;2023-09-30T11:32:40;101565.69;;;13.07;97.09
61488;BME280;47351;53.326;-6.298;2023-09-30T11:35:31;101560.52;;;13.05;97.00
61488;BME280;47351;53.326;-6.298;2023-09-30T11:38:22;101565.75;;;13.01;97.00
61488;BME280;47351;53.326;-6.298;2023-09-30T11:41:13;101569.97;;;12.93;96.99
61488;BME280;47351;53.326;-6.298;2023-09-30T11:44:04;101563.99;;;12.83;96.50
61488;BME280;47351;53.326;-6.298;2023-09-30T11:47:01;101560.27;;;12.70;96.13
61488;BME280;47351;53.326;-6.298;2023-09-30T11:49:53;101551.89;;;12.61;96.40
61488;BME280;47351;53.326;-6.298;2023-09-30T11:52:45;101537.28;;;12.54;96.52
61488;BME280;47351;53.326;-6.298;2023-09-30T11:55:36;101520.76;;;12.45;96.56
61488;BME280;47351;53.326;-6.298;2023-09-30T11:58:27;101514.88;;;12.38;97.02
61488;BME280;47351;53.326;-6.298;2023-09-30T12:01:18;101511.17;;;12.34;97.22
61488;BME280;47351;53.326;-6.298;2023-09-30T12:04:11;101510.05;;;12.31;97.69
61488;BME280;47351;53.326;-6.298;2023-09-30T12:07:01;101499.33;;;12.27;97.91
61488;BME280;47351;53.326;-6.298;2023-09-30T12:09:52;101490.77;;;12.23;98.08
61488;BME280;47351;53.326;-6.298;2023-09-30T12:12:43;101489.56;;;12.21;98.46
61488;BME280;47351;53.326;-6.298;2023-09-30T12:15:34;101479.17;;;12.19;98.74
61488;BME280;47351;53.326;-6.298;2023-09-30T12:18:24;101465.18;;;12.19;99.04
61488;BME280;47351;53.326;-6.298;2023-09-30T12:21:15;101450.15;;;12.21;99.34
61488;BME280;47351;53.326;-6.298;2023-09-30T12:24:09;101441.44;;;12.20;99.29
61488;BME280;47351;53.326;-6.298;2023-09-30T12:27:01;101429.20;;;12.21;99.54
61488;BME280;47351;53.326;-6.298;2023-09-30T12:29:52;101432.99;;;12.24;99.66
61488;BME280;47351;53.326;-6.298;2023-09-30T12:32:43;101425.52;;;12.29;99.92
61488;BME280;47351;53.326;-6.298;2023-09-30T12:35:34;101407.86;;;12.31;100.00
61488;BME280;47351;53.326;-6.298;2023-09-30T12:38:24;101408.91;;;12.29;100.00
61488;BME280;47351;53.326;-6.298;2023-09-30T12:41:16;101394.55;;;12.26;100.00
61488;BME280;47351;53.326;-6.298;2023-09-30T12:44:08;101384.60;;;12.23;100.00
61488;BME280;47351;53.326;-6.298;2023-09-30T12:46:59;101376.05;;;12.23;100.00
61488;BME280;47351;53.326;-6.298;2023-09-30T12:49:50;101362.86;;;12.24;100.00
61488;BME280;47351;53.326;-6.298;2023-09-30T12:52:43;101356.38;;;12.26;100.00
61488;BME280;47351;53.326;-6.298;2023-09-30T12:55:33;101340.08;;;12.28;100.00
61488;BME280;47351;53.326;-6.298;2023-09-30T12:58:24;101330.20;;;12.30;100.00
61488;BME280;47351;53.326;-6.298;2023-09-30T13:01:16;101328.85;;;12.33;100.00
61488;BME280;47351;53.326;-6.298;2023-09-30T13:04:11;101325.38;;;12.36;100.00
61488;BME280;47351;53.326;-6.298;2023-09-30T13:07:01;101319.70;;;12.39;100.00
61488;BME280;47351;53.326;-6.298;2023-09-30T13:09:52;101316.20;;;12.41;100.00
61488;BME280;47351;53.326;-6.298;2023-09-30T13:12:43;101303.90;;;12.44;100.00
61488;BME280;47351;53.326;-6.298;2023-09-30T13:15:34;101301.92;;;12.48;100.00
61488;BME280;47351;53.326;-6.298;2023-09-30T13:18:27;101296.59;;;12.49;100.00
61488;BME280;47351;53.326;-6.298;2023-09-30T13:21:17;101295.90;;;12.51;100.00
61488;BME280;47351;53.326;-6.298;2023-09-30T13:24:08;101282.98;;;12.53;100.00
61488;BME280;47351;53.326;-6.298;2023-09-30T13:26:59;101277.33;;;12.56;100.00
61488;BME280;47351;53.326;-6.298;2023-09-30T13:29:50;101263.32;;;12.58;100.00
61488;BME280;47351;53.326;-6.298;2023-09-30T13:32:43;101276.33;;;12.58;100.00
61488;BME280;47351;53.326;-6.298;2023-09-30T13:35:35;101263.27;;;12.60;100.00
61488;BME280;47351;53.326;-6.298;2023-09-30T13:38:27;101258.79;;;12.60;100.00
61488;BME280;47351;53.326;-6.298;2023-09-30T13:41:17;101251.42;;;12.60;100.00
61488;BME280;47351;53.326;-6.298;2023-09-30T13:44:08;101247.73;;;12.61;100.00
61488;BME280;47351;53.326;-6.298;2023-09-30T13:47:00;101235.81;;;12.62;100.00
61488;BME280;47351;53.326;-6.298;2023-09-30T13:49:50;101240.58;;;12.63;100.00
61488;BME280;47351;53.326;-6.298;2023-09-30T13:52:41;101230.08;;;12.64;100.00
61488;BME280;47351;53.326;-6.298;2023-09-30T13:55:31;101228.10;;;12.64;100.00
61488;BME280;47351;53.326;-6.298;2023-09-30T13:58:22;101215.88;;;12.66;100.00
61488;BME280;47351;53.326;-6.298;2023-09-30T14:01:14;101213.85;;;12.68;100.00
61488;BME280;47351;53.326;-6.298;2023-09-30T14:04:05;101205.13;;;12.71;100.00
61488;BME280;47351;53.326;-6.298;2023-09-30T14:06:56;101199.95;;;12.75;100.00
61488;BME280;47351;53.326;-6.298;2023-09-30T14:09:49;101197.27;;;12.78;100.00
61488;BME280;47351;53.326;-6.298;2023-09-30T14:12:39;101201.23;;;12.81;100.00
61488;BME280;47351;53.326;-6.298;2023-09-30T14:15:30;101189.13;;;12.86;100.00
61488;BME280;47351;53.326;-6.298;2023-09-30T14:18:21;101184.47;;;12.91;100.00
61488;BME280;47351;53.326;-6.298;2023-09-30T14:21:11;101176.79;;;12.95;100.00
61488;BME280;47351;53.326;-6.298;2023-09-30T14:24:02;101177.61;;;13.01;100.00
61488;BME280;47351;53.326;-6.298;2023-09-30T14:26:53;101175.68;;;13.08;100.00
61488;BME280;47351;53.326;-6.298;2023-09-30T14:29:44;101164.66;;;13.15;100.00
61488;BME280;47351;53.326;-6.298;2023-09-30T14:32:35;101151.41;;;13.27;100.00
61488;BME280;47351;53.326;-6.298;2023-09-30T14:35:26;101151.88;;;13.39;100.00
61488;BME280;47351;53.326;-6.298;2023-09-30T14:38:17;101152.29;;;13.51;100.00
61488;BME280;47351;53.326;-6.298;2023-09-30T14:41:07;101153.69;;;13.59;100.00
61488;BME280;47351;53.326;-6.298;2023-09-30T14:43:59;101140.84;;;13.67;100.00
61488;BME280;47351;53.326;-6.298;2023-09-30T14:46:50;101127.89;;;13.76;100.00